sensor_id;sensor_type;location;lat;lon;timestamp;temperature;humidity
24426;DHT22;12611;44.446;26.000;2024-02-21T00:00:51;11.00;79.70
24426;DHT22;12611;44.446;26.000;2024-02-21T00:03:20;11.00;79.70
24426;DHT22;12611;44.446;26.000;2024-02-21T00:05:48;11.00;79.70
24426;DHT22;12611;44.446;26.000;2024-02-21T00:08:17;11.00;79.60
24426;DHT22;12611;44.446;26.000;2024-02-21T00:10:46;11.00;79.70
24426;DHT22;12611;44.446;26.000;2024-02-21T00:13:16;11.00;79.50
24426;DHT22;12611;44.446;26.000;2024-02-21T00:15:45;11.00;79.40
24426;DHT22;12611;44.446;26.000;2024-02-21T00:18:13;11.00;79.70
24426;DHT22;12611;44.446;26.000;2024-02-21T00:20:42;11.00;79.60
24426;DHT22;12611;44.446;26.000;2024-02-21T00:23:11;11.00;79.90
24426;DHT22;12611;44.446;26.000;2024-02-21T00:25:40;11.00;79.90
24426;DHT22;12611;44.446;26.000;2024-02-21T00:28:09;11.00;79.90
24426;DHT22;12611;44.446;26.000;2024-02-21T00:30:39;11.00;79.90
24426;DHT22;12611;44.446;26.000;2024-02-21T00:33:07;11.00;79.90
24426;DHT22;12611;44.446;26.000;2024-02-21T00:35:36;11.00;79.90
24426;DHT22;12611;44.446;26.000;2024-02-21T00:38:05;11.00;79.80
24426;DHT22;12611;44.446;26.000;2024-02-21T00:40:34;11.00;79.90
24426;DHT22;12611;44.446;26.000;2024-02-21T00:43:03;11.00;79.90
24426;DHT22;12611;44.446;26.000;2024-02-21T00:45:32;11.00;79.70
24426;DHT22;12611;44.446;26.000;2024-02-21T00:48:03;11.00;80.70
24426;DHT22;12611;44.446;26.000;2024-02-21T00:50:31;11.10;79.70
24426;DHT22;12611;44.446;26.000;2024-02-21T00:53:00;11.10;79.70
24426;DHT22;12611;44.446;26.000;2024-02-21T00:55:29;11.00;79.70
24426;DHT22;12611;44.446;26.000;2024-02-21T00:57:58;11.10;79.80
24426;DHT22;12611;44.446;26.000;2024-02-21T01:00:26;11.00;79.90
24426;DHT22;12611;44.446;26.000;2024-02-21T01:02:55;11.00;79.90
24426;DHT22;12611;44.446;26.000;2024-02-21T01:05:26;11.00;80.00
24426;DHT22;12611;44.446;26.000;2024-02-21T01:07:56;11.00;80.20
24426;DHT22;12611;44.446;26.000;2024-02-21T01:10:25;11.00;80.30
24426;DHT22;12611;44.446;26.000;2024-02-21T01:12:53;10.90;80.50
24426;DHT22;12611;44.446;26.000;2024-02-21T01:15:22;10.90;80.30
24426;DHT22;12611;44.446;26.000;2024-02-21T01:17:51;10.90;80.50
24426;DHT22;12611;44.446;26.000;2024-02-21T01:20:22;10.90;80.40
24426;DHT22;12611;44.446;26.000;2024-02-21T01:22:52;10.90;80.30
24426;DHT22;12611;44.446;26.000;2024-02-21T01:25:21;10.90;80.20
24426;DHT22;12611;44.446;26.000;2024-02-21T01:27:49;11.00;80.20
24426;DHT22;12611;44.446;26.000;2024-02-21T01:30:18;10.90;80.40
24426;DHT22;12611;44.446;26.000;2024-02-21T01:32:47;10.90;80.40
24426;DHT22;12611;44.446;26.000;2024-02-21T01:35:16;10.90;80.30
24426;DHT22;12611;44.446;26.000;2024-02-21T01:37:45;10.90;80.50
24426;DHT22;12611;44.446;26.000;2024-02-21T01:40:16;10.90;80.50
24426;DHT22;12611;44.446;26.000;2024-02-21T01:42:44;10.90;80.50
24426;DHT22;12611;44.446;26.000;2024-02-21T01:45:15;10.90;80.50
24426;DHT22;12611;44.446;26.000;2024-02-21T01:47:45;10.90;80.50
24426;DHT22;12611;44.446;26.000;2024-02-21T01:50:15;10.90;80.70
24426;DHT22;12611;44.446;26.000;2024-02-21T01:52:46;10.90;80.90
24426;DHT22;12611;44.446;26.000;2024-02-21T01:55:17;10.80;80.90
24426;DHT22;12611;44.446;26.000;2024-02-21T01:57:46;10.80;81.00
24426;DHT22;12611;44.446;26.000;2024-02-21T02:00:15;10.80;80.80
24426;DHT22;12611;44.446;26.000;2024-02-21T02:02:44;10.80;80.80
24426;DHT22;12611;44.446;26.000;2024-02-21T02:05:14;10.80;81.00
24426;DHT22;12611;44.446;26.000;2024-02-21T02:07:44;10.80;81.10
24426;DHT22;12611;44.446;26.000;2024-02-21T02:10:13;10.80;81.20
24426;DHT22;12611;44.446;26.000;2024-02-21T02:12:43;10.70;81.20
24426;DHT22;12611;44.446;26.000;2024-02-21T02:15:12;10.70;81.30
24426;DHT22;12611;44.446;26.000;2024-02-21T02:17:40;10.70;81.30
24426;DHT22;12611;44.446;26.000;2024-02-21T02:20:10;10.70;81.40
24426;DHT22;12611;44.446;26.000;2024-02-21T02:22:41;10.70;81.40
24426;DHT22;12611;44.446;26.000;2024-02-21T02:25:13;10.70;81.60
24426;DHT22;12611;44.446;26.000;2024-02-21T02:27:42;10.70;81.90
24426;DHT22;12611;44.446;26.000;2024-02-21T02:30:12;10.70;82.00
24426;DHT22;12611;44.446;26.000;2024-02-21T02:32:44;10.70;82.10
24426;DHT22;12611;44.446;26.000;2024-02-21T02:35:14;10.70;82.10
24426;DHT22;12611;44.446;26.000;2024-02-21T02:37:48;10.60;82.10
24426;DHT22;12611;44.446;26.000;2024-02-21T02:40:19;10.60;82.10
24426;DHT22;12611;44.446;26.000;2024-02-21T02:42:48;10.60;82.20
24426;DHT22;12611;44.446;26.000;2024-02-21T02:45:17;10.60;82.20
24426;DHT22;12611;44.446;26.000;2024-02-21T02:47:46;10.60;82.50
24426;DHT22;12611;44.446;26.000;2024-02-21T02:50:15;10.60;82.60
24426;DHT22;12611;44.446;26.000;2024-02-21T02:52:44;10.60;82.60
24426;DHT22;12611;44.446;26.000;2024-02-21T02:55:12;10.60;82.70
24426;DHT22;12611;44.446;26.000;2024-02-21T02:57:43;10.60;82.70
24426;DHT22;12611;44.446;26.000;2024-02-21T03:00:12;10.60;82.70
24426;DHT22;12611;44.446;26.000;2024-02-21T03:02:44;10.60;82.70
24426;DHT22;12611;44.446;26.000;2024-02-21T03:05:14;10.60;82.70
24426;DHT22;12611;44.446;26.000;2024-02-21T03:07:43;10.60;82.60
24426;DHT22;12611;44.446;26.000;2024-02-21T03:10:13;10.60;82.90
24426;DHT22;12611;44.446;26.000;2024-02-21T03:12:46;10.60;83.20
24426;DHT22;12611;44.446;26.000;2024-02-21T03:15:15;10.60;83.40
24426;DHT22;12611;44.446;26.000;2024-02-21T03:17:43;10.60;83.30
24426;DHT22;12611;44.446;26.000;2024-02-21T03:20:12;10.50;83.30
24426;DHT22;12611;44.446;26.000;2024-02-21T03:22:40;10.50;83.60
24426;DHT22;12611;44.446;26.000;2024-02-21T03:25:09;10.50;83.60
24426;DHT22;12611;44.446;26.000;2024-02-21T03:27:40;10.50;83.60
24426;DHT22;12611;44.446;26.000;2024-02-21T03:30:11;10.40;83.60
24426;DHT22;12611;44.446;26.000;2024-02-21T03:32:40;10.40;83.90
24426;DHT22;12611;44.446;26.000;2024-02-21T03:35:08;10.40;84.10
24426;DHT22;12611;44.446;26.000;2024-02-21T03:37:37;10.40;84.10
24426;DHT22;12611;44.446;26.000;2024-02-21T03:40:08;10.40;83.90
24426;DHT22;12611;44.446;26.000;2024-02-21T03:42:37;10.40;84.10
24426;DHT22;12611;44.446;26.000;2024-02-21T03:45:07;10.30;84.30
24426;DHT22;12611;44.446;26.000;2024-02-21T03:47:37;10.40;84.40
24426;DHT22;12611;44.446;26.000;2024-02-21T03:50:07;10.40;84.40
24426;DHT22;12611;44.446;26.000;2024-02-21T03:52:36;10.30;84.70
24426;DHT22;12611;44.446;26.000;2024-02-21T03:55:06;10.30;84.50
24426;DHT22;12611;44.446;26.000;2024-02-21T03:57:36;10.40;84.50
24426;DHT22;12611;44.446;26.000;2024-02-21T04:00:06;10.30;84.30
24426;DHT22;12611;44.446;26.000;2024-02-21T04:02:39;10.40;84.30
24426;DHT22;12611;44.446;26.000;2024-02-21T04:05:08;10.40;84.20
24426;DHT22;12611;44.446;26.000;2024-02-21T04:07:39;10.50;84.40
24426;DHT22;12611;44.446;26.000;2024-02-21T04:10:08;10.50;84.40
24426;DHT22;12611;44.446;26.000;2024-02-21T04:12:37;10.50;84.50
24426;DHT22;12611;44.446;26.000;2024-02-21T04:15:07;10.50;84.40
24426;DHT22;12611;44.446;26.000;2024-02-21T04:17:36;10.50;84.30
24426;DHT22;12611;44.446;26.000;2024-02-21T04:20:14;10.50;84.30
24426;DHT22;12611;44.446;26.000;2024-02-21T04:22:43;10.50;84.50
24426;DHT22;12611;44.446;26.000;2024-02-21T04:25:15;10.50;84.90
24426;DHT22;12611;44.446;26.000;2024-02-21T04:27:44;10.50;85.30
24426;DHT22;12611;44.446;26.000;2024-02-21T04:30:13;10.40;85.10
24426;DHT22;12611;44.446;26.000;2024-02-21T04:32:42;10.50;85.00
24426;DHT22;12611;44.446;26.000;2024-02-21T04:35:12;10.40;85.00
24426;DHT22;12611;44.446;26.000;2024-02-21T04:37:41;10.40;85.40
24426;DHT22;12611;44.446;26.000;2024-02-21T04:40:10;10.40;85.70
24426;DHT22;12611;44.446;26.000;2024-02-21T04:42:40;10.40;85.50
24426;DHT22;12611;44.446;26.000;2024-02-21T04:45:09;10.40;85.50
24426;DHT22;12611;44.446;26.000;2024-02-21T04:47:38;10.50;85.50
24426;DHT22;12611;44.446;26.000;2024-02-21T04:50:07;10.50;85.30
24426;DHT22;12611;44.446;26.000;2024-02-21T04:52:37;10.50;85.10
24426;DHT22;12611;44.446;26.000;2024-02-21T04:55:06;10.50;86.10
24426;DHT22;12611;44.446;26.000;2024-02-21T04:57:35;10.50;85.20
24426;DHT22;12611;44.446;26.000;2024-02-21T05:00:05;10.60;85.20
24426;DHT22;12611;44.446;26.000;2024-02-21T05:02:34;10.60;85.30
24426;DHT22;12611;44.446;26.000;2024-02-21T05:05:03;10.60;85.10
24426;DHT22;12611;44.446;26.000;2024-02-21T05:07:34;10.60;85.00
24426;DHT22;12611;44.446;26.000;2024-02-21T05:10:07;10.70;85.00
24426;DHT22;12611;44.446;26.000;2024-02-21T05:12:36;10.70;85.00
24426;DHT22;12611;44.446;26.000;2024-02-21T05:15:06;10.70;84.90
24426;DHT22;12611;44.446;26.000;2024-02-21T05:17:35;10.70;84.80
24426;DHT22;12611;44.446;26.000;2024-02-21T05:20:05;10.70;84.70
24426;DHT22;12611;44.446;26.000;2024-02-21T05:22:34;10.80;84.70
24426;DHT22;12611;44.446;26.000;2024-02-21T05:25:05;10.80;84.60
24426;DHT22;12611;44.446;26.000;2024-02-21T05:27:37;10.80;84.60
24426;DHT22;12611;44.446;26.000;2024-02-21T05:30:09;10.80;84.50
24426;DHT22;12611;44.446;26.000;2024-02-21T05:32:38;10.80;84.50
24426;DHT22;12611;44.446;26.000;2024-02-21T05:35:08;10.80;84.40
24426;DHT22;12611;44.446;26.000;2024-02-21T05:37:37;10.90;84.60
24426;DHT22;12611;44.446;26.000;2024-02-21T05:40:08;10.90;84.70
24426;DHT22;12611;44.446;26.000;2024-02-21T05:42:37;10.90;84.70
24426;DHT22;12611;44.446;26.000;2024-02-21T05:45:06;10.90;85.00
24426;DHT22;12611;44.446;26.000;2024-02-21T05:47:36;10.90;85.00
24426;DHT22;12611;44.446;26.000;2024-02-21T05:50:05;10.90;85.00
24426;DHT22;12611;44.446;26.000;2024-02-21T05:52:34;10.90;85.70
24426;DHT22;12611;44.446;26.000;2024-02-21T05:55:03;10.80;85.70
24426;DHT22;12611;44.446;26.000;2024-02-21T05:57:34;10.80;86.00
24426;DHT22;12611;44.446;26.000;2024-02-21T06:00:04;10.80;86.20
24426;DHT22;12611;44.446;26.000;2024-02-21T06:02:33;10.70;86.60
24426;DHT22;12611;44.446;26.000;2024-02-21T06:05:04;10.70;86.70
24426;DHT22;12611;44.446;26.000;2024-02-21T06:07:34;10.70;86.60
24426;DHT22;12611;44.446;26.000;2024-02-21T06:10:04;10.70;87.40
24426;DHT22;12611;44.446;26.000;2024-02-21T06:12:34;10.60;86.90
24426;DHT22;12611;44.446;26.000;2024-02-21T06:15:04;10.60;86.70
24426;DHT22;12611;44.446;26.000;2024-02-21T06:17:32;10.60;86.90
24426;DHT22;12611;44.446;26.000;2024-02-21T06:20:01;10.60;87.20
24426;DHT22;12611;44.446;26.000;2024-02-21T06:22:30;10.50;86.90
24426;DHT22;12611;44.446;26.000;2024-02-21T06:24:59;10.50;87.00
24426;DHT22;12611;44.446;26.000;2024-02-21T06:27:29;10.50;87.10
24426;DHT22;12611;44.446;26.000;2024-02-21T06:29:59;10.50;87.10
24426;DHT22;12611;44.446;26.000;2024-02-21T06:32:29;10.50;87.00
24426;DHT22;12611;44.446;26.000;2024-02-21T06:34:58;10.50;86.90
24426;DHT22;12611;44.446;26.000;2024-02-21T06:37:29;10.50;87.10
24426;DHT22;12611;44.446;26.000;2024-02-21T06:39:59;10.50;87.30
24426;DHT22;12611;44.446;26.000;2024-02-21T06:42:28;10.50;87.50
24426;DHT22;12611;44.446;26.000;2024-02-21T06:44:56;10.60;87.50
24426;DHT22;12611;44.446;26.000;2024-02-21T06:47:26;10.60;87.30
24426;DHT22;12611;44.446;26.000;2024-02-21T06:49:55;10.60;87.40
24426;DHT22;12611;44.446;26.000;2024-02-21T06:52:24;10.60;87.70
24426;DHT22;12611;44.446;26.000;2024-02-21T06:54:54;10.60;87.60
24426;DHT22;12611;44.446;26.000;2024-02-21T06:57:22;10.70;87.70
24426;DHT22;12611;44.446;26.000;2024-02-21T06:59:51;10.70;87.50
24426;DHT22;12611;44.446;26.000;2024-02-21T07:02:20;10.70;87.60
24426;DHT22;12611;44.446;26.000;2024-02-21T07:04:50;10.80;87.70
24426;DHT22;12611;44.446;26.000;2024-02-21T07:07:19;10.70;87.80
24426;DHT22;12611;44.446;26.000;2024-02-21T07:09:48;10.80;87.90
24426;DHT22;12611;44.446;26.000;2024-02-21T07:12:17;10.70;88.00
24426;DHT22;12611;44.446;26.000;2024-02-21T07:14:46;10.80;87.80
24426;DHT22;12611;44.446;26.000;2024-02-21T07:17:14;10.80;87.90
24426;DHT22;12611;44.446;26.000;2024-02-21T07:19:43;10.80;87.80
24426;DHT22;12611;44.446;26.000;2024-02-21T07:22:14;10.80;88.80
24426;DHT22;12611;44.446;26.000;2024-02-21T07:24:42;10.90;88.00
24426;DHT22;12611;44.446;26.000;2024-02-21T07:27:13;10.90;87.80
24426;DHT22;12611;44.446;26.000;2024-02-21T07:29:42;11.00;88.00
24426;DHT22;12611;44.446;26.000;2024-02-21T07:32:14;11.00;87.70
24426;DHT22;12611;44.446;26.000;2024-02-21T07:34:43;11.10;87.70
24426;DHT22;12611;44.446;26.000;2024-02-21T07:37:14;11.20;87.50
24426;DHT22;12611;44.446;26.000;2024-02-21T07:39:42;11.20;87.50
24426;DHT22;12611;44.446;26.000;2024-02-21T07:42:11;11.20;87.30
24426;DHT22;12611;44.446;26.000;2024-02-21T07:44:39;11.10;87.20
24426;DHT22;12611;44.446;26.000;2024-02-21T07:47:10;11.20;87.10
24426;DHT22;12611;44.446;26.000;2024-02-21T07:49:44;11.20;87.10
24426;DHT22;12611;44.446;26.000;2024-02-21T07:52:14;11.30;87.10
24426;DHT22;12611;44.446;26.000;2024-02-21T07:54:43;11.30;87.10
24426;DHT22;12611;44.446;26.000;2024-02-21T07:57:11;11.40;87.40
24426;DHT22;12611;44.446;26.000;2024-02-21T07:59:40;11.40;87.40
24426;DHT22;12611;44.446;26.000;2024-02-21T08:02:09;11.40;87.10
24426;DHT22;12611;44.446;26.000;2024-02-21T08:04:38;11.50;87.10
24426;DHT22;12611;44.446;26.000;2024-02-21T08:07:07;11.50;87.00
24426;DHT22;12611;44.446;26.000;2024-02-21T08:09:39;11.60;87.00
24426;DHT22;12611;44.446;26.000;2024-02-21T08:12:08;11.60;86.90
24426;DHT22;12611;44.446;26.000;2024-02-21T08:14:37;11.70;86.90
24426;DHT22;12611;44.446;26.000;2024-02-21T08:17:05;11.80;86.90
24426;DHT22;12611;44.446;26.000;2024-02-21T08:19:34;11.90;86.80
24426;DHT22;12611;44.446;26.000;2024-02-21T08:22:05;12.00;86.70
24426;DHT22;12611;44.446;26.000;2024-02-21T08:24:35;12.00;86.60
24426;DHT22;12611;44.446;26.000;2024-02-21T08:27:05;12.10;86.60
24426;DHT22;12611;44.446;26.000;2024-02-21T08:29:33;12.20;86.60
24426;DHT22;12611;44.446;26.000;2024-02-21T08:32:02;12.20;86.70
24426;DHT22;12611;44.446;26.000;2024-02-21T08:34:31;12.30;86.60
24426;DHT22;12611;44.446;26.000;2024-02-21T08:37:01;12.30;86.40
24426;DHT22;12611;44.446;26.000;2024-02-21T08:39:30;12.40;86.30
24426;DHT22;12611;44.446;26.000;2024-02-21T08:42:00;12.50;86.10
24426;DHT22;12611;44.446;26.000;2024-02-21T08:44:29;12.60;86.30
24426;DHT22;12611;44.446;26.000;2024-02-21T08:46:58;12.60;86.20
24426;DHT22;12611;44.446;26.000;2024-02-21T08:49:35;12.70;86.10
24426;DHT22;12611;44.446;26.000;2024-02-21T08:52:18;12.80;85.70
24426;DHT22;12611;44.446;26.000;2024-02-21T08:54:47;12.90;85.50
24426;DHT22;12611;44.446;26.000;2024-02-21T08:57:17;12.90;85.30
24426;DHT22;12611;44.446;26.000;2024-02-21T08:59:46;13.00;84.70
24426;DHT22;12611;44.446;26.000;2024-02-21T09:02:15;13.10;84.60
24426;DHT22;12611;44.446;26.000;2024-02-21T09:04:44;13.10;84.20
24426;DHT22;12611;44.446;26.000;2024-02-21T09:07:13;13.10;84.30
24426;DHT22;12611;44.446;26.000;2024-02-21T09:09:42;13.20;84.20
24426;DHT22;12611;44.446;26.000;2024-02-21T09:12:10;13.20;84.00
24426;DHT22;12611;44.446;26.000;2024-02-21T09:14:41;13.30;84.00
24426;DHT22;12611;44.446;26.000;2024-02-21T09:17:09;13.30;83.70
24426;DHT22;12611;44.446;26.000;2024-02-21T09:19:39;13.40;83.30
24426;DHT22;12611;44.446;26.000;2024-02-21T09:22:08;13.50;82.80
24426;DHT22;12611;44.446;26.000;2024-02-21T09:24:37;13.50;82.60
24426;DHT22;12611;44.446;26.000;2024-02-21T09:27:05;13.60;82.60
24426;DHT22;12611;44.446;26.000;2024-02-21T09:29:34;13.60;82.20
24426;DHT22;12611;44.446;26.000;2024-02-21T09:32:05;13.60;81.60
24426;DHT22;12611;44.446;26.000;2024-02-21T09:34:34;13.60;81.00
24426;DHT22;12611;44.446;26.000;2024-02-21T09:37:04;13.70;81.00
24426;DHT22;12611;44.446;26.000;2024-02-21T09:39:32;13.70;80.20
24426;DHT22;12611;44.446;26.000;2024-02-21T09:42:06;13.70;80.30
24426;DHT22;12611;44.446;26.000;2024-02-21T09:44:37;13.80;80.60
24426;DHT22;12611;44.446;26.000;2024-02-21T09:47:11;13.90;81.20
24426;DHT22;12611;44.446;26.000;2024-02-21T09:49:42;14.00;80.50
24426;DHT22;12611;44.446;26.000;2024-02-21T09:52:12;14.00;80.30
24426;DHT22;12611;44.446;26.000;2024-02-21T09:54:41;14.10;79.80
24426;DHT22;12611;44.446;26.000;2024-02-21T09:57:13;14.10;78.40
24426;DHT22;12611;44.446;26.000;2024-02-21T09:59:42;14.00;78.10
24426;DHT22;12611;44.446;26.000;2024-02-21T10:02:14;14.00;78.10
24426;DHT22;12611;44.446;26.000;2024-02-21T10:04:43;14.10;78.10
24426;DHT22;12611;44.446;26.000;2024-02-21T10:07:13;14.00;77.20
24426;DHT22;12611;44.446;26.000;2024-02-21T10:09:41;14.00;77.70
24426;DHT22;12611;44.446;26.000;2024-02-21T10:12:13;14.00;78.50
24426;DHT22;12611;44.446;26.000;2024-02-21T10:14:44;13.90;76.60
24426;DHT22;12611;44.446;26.000;2024-02-21T10:17:17;13.90;77.40
24426;DHT22;12611;44.446;26.000;2024-02-21T10:19:47;13.90;77.90
24426;DHT22;12611;44.446;26.000;2024-02-21T10:22:20;13.90;77.60
24426;DHT22;12611;44.446;26.000;2024-02-21T10:24:51;13.80;76.90
24426;DHT22;12611;44.446;26.000;2024-02-21T10:27:23;13.80;77.40
24426;DHT22;12611;44.446;26.000;2024-02-21T10:29:53;13.70;77.70
24426;DHT22;12611;44.446;26.000;2024-02-21T10:32:23;13.70;78.00
24426;DHT22;12611;44.446;26.000;2024-02-21T10:35:01;13.70;78.30
24426;DHT22;12611;44.446;26.000;2024-02-21T10:37:30;13.70;78.50
24426;DHT22;12611;44.446;26.000;2024-02-21T10:40:01;13.60;78.60
24426;DHT22;12611;44.446;26.000;2024-02-21T10:42:33;13.60;78.60
24426;DHT22;12611;44.446;26.000;2024-02-21T10:45:07;13.70;78.80
24426;DHT22;12611;44.446;26.000;2024-02-21T10:47:45;13.60;78.90
24426;DHT22;12611;44.446;26.000;2024-02-21T10:50:19;13.60;78.80
24426;DHT22;12611;44.446;26.000;2024-02-21T10:52:57;13.70;79.20
24426;DHT22;12611;44.446;26.000;2024-02-21T10:55:35;13.80;78.90
24426;DHT22;12611;44.446;26.000;2024-02-21T10:58:07;13.90;78.00
24426;DHT22;12611;44.446;26.000;2024-02-21T11:00:37;14.00;78.10
24426;DHT22;12611;44.446;26.000;2024-02-21T11:03:08;14.00;77.60
24426;DHT22;12611;44.446;26.000;2024-02-21T11:05:37;14.00;77.20
24426;DHT22;12611;44.446;26.000;2024-02-21T11:08:07;14.00;77.30
24426;DHT22;12611;44.446;26.000;2024-02-21T11:10:36;14.10;77.60
24426;DHT22;12611;44.446;26.000;2024-02-21T11:13:08;14.20;77.40
24426;DHT22;12611;44.446;26.000;2024-02-21T11:15:37;14.20;77.30
24426;DHT22;12611;44.446;26.000;2024-02-21T11:18:07;14.30;76.90
24426;DHT22;12611;44.446;26.000;2024-02-21T11:20:37;14.30;76.70
24426;DHT22;12611;44.446;26.000;2024-02-21T11:23:06;14.40;76.80
24426;DHT22;12611;44.446;26.000;2024-02-21T11:25:35;14.50;76.90
24426;DHT22;12611;44.446;26.000;2024-02-21T11:28:04;14.50;76.20
24426;DHT22;12611;44.446;26.000;2024-02-21T11:30:36;14.50;76.30
24426;DHT22;12611;44.446;26.000;2024-02-21T11:33:07;14.50;75.50
24426;DHT22;12611;44.446;26.000;2024-02-21T11:35:36;14.50;75.40
24426;DHT22;12611;44.446;26.000;2024-02-21T11:38:09;14.50;75.50
24426;DHT22;12611;44.446;26.000;2024-02-21T11:40:45;14.60;75.10
24426;DHT22;12611;44.446;26.000;2024-02-21T11:43:15;14.50;74.70
24426;DHT22;12611;44.446;26.000;2024-02-21T11:45:44;14.70;75.20
24426;DHT22;12611;44.446;26.000;2024-02-21T11:48:14;14.70;74.90
24426;DHT22;12611;44.446;26.000;2024-02-21T11:50:53;14.70;74.50
24426;DHT22;12611;44.446;26.000;2024-02-21T11:53:22;14.70;74.50
24426;DHT22;12611;44.446;26.000;2024-02-21T11:55:51;14.70;74.30
24426;DHT22;12611;44.446;26.000;2024-02-21T11:58:19;14.70;74.00
24426;DHT22;12611;44.446;26.000;2024-02-21T12:00:48;14.70;73.70
24426;DHT22;12611;44.446;26.000;2024-02-21T12:03:18;14.70;73.70
24426;DHT22;12611;44.446;26.000;2024-02-21T12:05:48;14.80;74.00
24426;DHT22;12611;44.446;26.000;2024-02-21T12:08:17;14.90;74.10
24426;DHT22;12611;44.446;26.000;2024-02-21T12:10:46;14.90;74.10
24426;DHT22;12611;44.446;26.000;2024-02-21T12:13:23;15.10;74.30
24426;DHT22;12611;44.446;26.000;2024-02-21T12:15:52;15.20;73.80
24426;DHT22;12611;44.446;26.000;2024-02-21T12:18:22;15.30;72.60
24426;DHT22;12611;44.446;26.000;2024-02-21T12:20:51;15.40;72.90
24426;DHT22;12611;44.446;26.000;2024-02-21T12:23:21;15.60;73.20
24426;DHT22;12611;44.446;26.000;2024-02-21T12:25:51;15.80;72.90
24426;DHT22;12611;44.446;26.000;2024-02-21T12:28:21;16.00;72.80
24426;DHT22;12611;44.446;26.000;2024-02-21T12:30:50;16.10;70.60
24426;DHT22;12611;44.446;26.000;2024-02-21T12:33:20;16.20;70.30
24426;DHT22;12611;44.446;26.000;2024-02-21T12:35:51;16.40;70.60
24426;DHT22;12611;44.446;26.000;2024-02-21T12:38:22;16.40;69.60
24426;DHT22;12611;44.446;26.000;2024-02-21T12:40:51;16.40;69.40
24426;DHT22;12611;44.446;26.000;2024-02-21T12:43:20;16.50;68.60
24426;DHT22;12611;44.446;26.000;2024-02-21T12:45:49;16.50;67.80
24426;DHT22;12611;44.446;26.000;2024-02-21T12:48:18;16.50;67.70
24426;DHT22;12611;44.446;26.000;2024-02-21T12:50:50;16.40;67.00
24426;DHT22;12611;44.446;26.000;2024-02-21T12:53:19;16.50;67.40
24426;DHT22;12611;44.446;26.000;2024-02-21T12:55:59;16.50;66.90
24426;DHT22;12611;44.446;26.000;2024-02-21T12:58:28;16.50;66.70
24426;DHT22;12611;44.446;26.000;2024-02-21T13:00:59;16.50;66.50
24426;DHT22;12611;44.446;26.000;2024-02-21T13:03:29;16.60;66.90
24426;DHT22;12611;44.446;26.000;2024-02-21T13:06:01;16.70;67.40
24426;DHT22;12611;44.446;26.000;2024-02-21T13:08:30;16.80;67.40
24426;DHT22;12611;44.446;26.000;2024-02-21T13:10:59;17.00;67.70
24426;DHT22;12611;44.446;26.000;2024-02-21T13:13:28;17.10;67.10
24426;DHT22;12611;44.446;26.000;2024-02-21T13:15:57;17.30;66.90
24426;DHT22;12611;44.446;26.000;2024-02-21T13:18:26;17.40;66.40
24426;DHT22;12611;44.446;26.000;2024-02-21T13:20:55;17.60;66.60
24426;DHT22;12611;44.446;26.000;2024-02-21T13:23:26;17.90;66.40
24426;DHT22;12611;44.446;26.000;2024-02-21T13:25:54;18.00;64.40
24426;DHT22;12611;44.446;26.000;2024-02-21T13:28:23;18.20;64.40
24426;DHT22;12611;44.446;26.000;2024-02-21T13:30:57;18.20;63.50
24426;DHT22;12611;44.446;26.000;2024-02-21T13:33:29;18.50;64.10
24426;DHT22;12611;44.446;26.000;2024-02-21T13:35:57;18.80;62.60
24426;DHT22;12611;44.446;26.000;2024-02-21T13:38:31;19.00;61.80
24426;DHT22;12611;44.446;26.000;2024-02-21T13:40:59;19.20;61.60
24426;DHT22;12611;44.446;26.000;2024-02-21T13:43:31;19.40;60.90
24426;DHT22;12611;44.446;26.000;2024-02-21T13:46:02;19.70;60.30
24426;DHT22;12611;44.446;26.000;2024-02-21T13:48:32;19.80;58.60
24426;DHT22;12611;44.446;26.000;2024-02-21T13:51:04;19.70;57.90
24426;DHT22;12611;44.446;26.000;2024-02-21T13:53:40;19.90;58.10
24426;DHT22;12611;44.446;26.000;2024-02-21T13:56:12;20.50;56.70
24426;DHT22;12611;44.446;26.000;2024-02-21T13:58:40;20.50;55.50
24426;DHT22;12611;44.446;26.000;2024-02-21T14:01:10;20.00;55.80
24426;DHT22;12611;44.446;26.000;2024-02-21T14:03:38;19.50;57.00
24426;DHT22;12611;44.446;26.000;2024-02-21T14:06:08;19.20;57.80
24426;DHT22;12611;44.446;26.000;2024-02-21T14:08:38;18.90;58.40
24426;DHT22;12611;44.446;26.000;2024-02-21T14:11:07;18.80;58.90
24426;DHT22;12611;44.446;26.000;2024-02-21T14:13:36;19.20;58.80
24426;DHT22;12611;44.446;26.000;2024-02-21T14:16:09;20.60;56.80
24426;DHT22;12611;44.446;26.000;2024-02-21T14:18:40;20.80;56.10
24426;DHT22;12611;44.446;26.000;2024-02-21T14:21:09;20.20;55.50
24426;DHT22;12611;44.446;26.000;2024-02-21T14:23:41;19.70;56.60
24426;DHT22;12611;44.446;26.000;2024-02-21T14:26:10;19.60;57.10
24426;DHT22;12611;44.446;26.000;2024-02-21T14:28:39;19.40;56.20
24426;DHT22;12611;44.446;26.000;2024-02-21T14:31:09;19.10;56.50
24426;DHT22;12611;44.446;26.000;2024-02-21T14:33:37;18.80;57.20
24426;DHT22;12611;44.446;26.000;2024-02-21T14:36:07;18.40;58.00
24426;DHT22;12611;44.446;26.000;2024-02-21T14:38:36;18.00;59.00
24426;DHT22;12611;44.446;26.000;2024-02-21T14:41:06;17.70;59.70
24426;DHT22;12611;44.446;26.000;2024-02-21T14:43:35;17.50;60.40
24426;DHT22;12611;44.446;26.000;2024-02-21T14:46:04;17.20;60.80
24426;DHT22;12611;44.446;26.000;2024-02-21T14:48:33;17.00;60.90
24426;DHT22;12611;44.446;26.000;2024-02-21T14:51:02;16.80;61.20
24426;DHT22;12611;44.446;26.000;2024-02-21T14:53:31;16.90;61.40
24426;DHT22;12611;44.446;26.000;2024-02-21T14:56:00;17.20;61.10
24426;DHT22;12611;44.446;26.000;2024-02-21T14:58:30;17.60;60.50
24426;DHT22;12611;44.446;26.000;2024-02-21T15:00:58;17.70;60.40
24426;DHT22;12611;44.446;26.000;2024-02-21T15:03:27;17.60;60.70
24426;DHT22;12611;44.446;26.000;2024-02-21T15:05:56;17.40;61.10
24426;DHT22;12611;44.446;26.000;2024-02-21T15:08:26;17.10;61.60
24426;DHT22;12611;44.446;26.000;2024-02-21T15:10:55;16.90;62.10
24426;DHT22;12611;44.446;26.000;2024-02-21T15:13:23;16.70;62.50
24426;DHT22;12611;44.446;26.000;2024-02-21T15:15:54;16.50;62.60
24426;DHT22;12611;44.446;26.000;2024-02-21T15:18:23;16.30;62.70
24426;DHT22;12611;44.446;26.000;2024-02-21T15:20:51;16.10;62.90
24426;DHT22;12611;44.446;26.000;2024-02-21T15:23:20;15.90;63.20
24426;DHT22;12611;44.446;26.000;2024-02-21T15:25:50;15.80;63.50
24426;DHT22;12611;44.446;26.000;2024-02-21T15:28:19;15.70;63.80
24426;DHT22;12611;44.446;26.000;2024-02-21T15:30:48;15.50;64.10